createdAt,value
2023-03-10T00:00:43.823Z,98199.88
2023-03-10T00:01:45.599Z,98203.56
2023-03-10T00:02:50.141Z,98189.44
2023-03-10T00:03:52.931Z,98181.66
2023-03-10T00:04:55.917Z,98190.47
2023-03-10T00:05:57.646Z,98190.00
2023-03-10T00:07:00.697Z,98187.75
2023-03-10T00:08:02.271Z,98182.47
2023-03-10T00:09:06.290Z,98179.69
2023-03-10T00:10:10.224Z,98173.91
2023-03-10T00:11:13.808Z,98156.78
2023-03-10T00:12:15.356Z,98162.34
2023-03-10T00:13:18.004Z,98163.56
2023-03-10T00:14:19.893Z,98158.75
2023-03-10T00:15:23.366Z,98165.75
2023-03-10T00:16:28.167Z,98166.53
2023-03-10T00:17:30.851Z,98163.84
2023-03-10T00:18:32.510Z,98158.13
2023-03-10T00:19:35.187Z,98155.53
2023-03-10T00:20:36.723Z,98164.25
2023-03-10T00:21:39.384Z,98158.63
2023-03-10T00:22:41.859Z,98151.94
2023-03-10T00:23:44.763Z,98151.09
2023-03-10T00:24:47.714Z,98150.72
2023-03-10T00:25:55.508Z,98148.75
2023-03-10T00:26:57.027Z,98153.50
2023-03-10T00:27:59.516Z,98143.66
2023-03-10T00:29:01.161Z,98143.94
2023-03-10T00:30:04.013Z,98144.19
2023-03-10T00:31:07.664Z,98144.38
2023-03-10T00:32:10.319Z,98143.69
2023-03-10T00:33:11.922Z,98137.44
2023-03-10T00:34:14.656Z,98132.06
2023-03-10T00:35:16.693Z,98137.75
2023-03-10T00:36:21.893Z,98125.09
2023-03-10T00:37:23.485Z,98127.31
2023-03-10T00:38:26.105Z,98126.13
2023-03-10T00:39:27.729Z,98120.66
2023-03-10T00:40:31.649Z,98114.41
2023-03-10T00:41:36.493Z,98109.34
2023-03-10T00:42:39.321Z,98104.53
2023-03-10T00:43:40.985Z,98099.34
2023-03-10T00:44:43.624Z,98093.03
2023-03-10T00:45:45.172Z,98085.22
2023-03-10T00:46:47.837Z,98091.53
2023-03-10T00:47:49.458Z,98088.97
2023-03-10T00:48:52.266Z,98082.34
2023-03-10T00:49:53.822Z,98079.75
2023-03-10T00:50:56.372Z,98081.06
2023-03-10T00:51:58.143Z,98080.53
2023-03-10T00:53:00.894Z,98072.34
2023-03-10T00:54:03.560Z,98065.84
2023-03-10T00:55:06.918Z,98077.38
2023-03-10T00:56:12.961Z,98068.81
2023-03-10T00:57:15.681Z,98070.44
2023-03-10T00:58:17.177Z,98057.31
2023-03-10T00:59:19.718Z,98063.41
2023-03-10T01:00:23.483Z,98068.81
2023-03-10T01:01:29.216Z,98070.91
2023-03-10T01:02:31.084Z,98069.16
2023-03-10T01:03:33.647Z,98068.22
2023-03-10T01:04:35.244Z,98065.81
2023-03-10T01:05:37.805Z,98068.84
2023-03-10T01:06:39.891Z,98064.22
2023-03-10T01:07:42.812Z,98061.16
2023-03-10T01:08:44.635Z,98066.28
2023-03-10T01:09:47.321Z,98063.88
2023-03-10T01:10:49.209Z,98067.53
2023-03-10T01:11:53.351Z,98063.22
2023-03-10T01:12:54.893Z,98065.38
2023-03-10T01:13:58.607Z,98062.81
2023-03-10T01:15:00.138Z,98052.16
2023-03-10T01:16:03.371Z,98059.47
2023-03-10T01:17:05.526Z,98059.25
2023-03-10T01:18:08.761Z,98052.06
2023-03-10T01:19:10.450Z,98044.91
2023-03-10T01:20:16.677Z,98054.88
2023-03-10T01:21:21.969Z,98041.56
2023-03-10T01:22:24.779Z,98035.28
2023-03-10T01:23:27.013Z,98026.72
2023-03-10T01:24:29.567Z,98028.44
2023-03-10T01:25:31.084Z,98034.56
2023-03-10T01:26:33.723Z,98031.16
2023-03-10T01:27:36.824Z,98033.75
2023-03-10T01:28:39.362Z,98020.19
2023-03-10T01:29:42.019Z,98026.41
2023-03-10T01:30:44.406Z,98019.94
2023-03-10T01:31:46.958Z,98021.75
2023-03-10T01:32:48.564Z,98017.00
2023-03-10T01:33:51.449Z,98014.97
2023-03-10T01:34:53.242Z,98015.75
2023-03-10T01:35:55.774Z,98007.47
2023-03-10T01:36:57.263Z,98009.84
2023-03-10T01:37:59.872Z,98011.66
2023-03-10T01:39:01.512Z,98007.59
2023-03-10T01:40:05.442Z,98006.16
2023-03-10T01:41:06.975Z,97998.94
2023-03-10T01:42:09.429Z,98000.84
2023-03-10T01:43:32.419Z,97994.84
2023-03-10T01:44:34.971Z,97990.03
2023-03-10T01:46:28.392Z,97989.50
2023-03-10T01:47:30.857Z,97975.25
2023-03-10T01:48:35.915Z,97973.16
2023-03-10T01:49:41.162Z,97976.66
2023-03-10T01:50:45.418Z,97981.16
2023-03-10T01:51:52.592Z,97983.38
2023-03-10T01:52:58.610Z,97979.00
2023-03-10T01:54:02.745Z,97987.22
2023-03-10T01:55:10.991Z,97979.53
2023-03-10T01:56:12.681Z,97971.84
2023-03-10T01:57:17.900Z,97977.59
2023-03-10T01:58:23.180Z,97976.59
2023-03-10T01:59:28.677Z,97972.78
2023-03-10T02:00:30.261Z,97972.00
2023-03-10T02:01:33.067Z,97973.47
2023-03-10T02:02:37.679Z,97962.84
2023-03-10T02:03:46.056Z,97963.06
2023-03-10T02:04:49.994Z,97961.78
2023-03-10T02:05:55.104Z,97965.09
2023-03-10T02:06:58.552Z,97952.66
2023-03-10T02:08:01.076Z,97944.13
2023-03-10T02:09:05.682Z,97949.03
2023-03-10T02:10:08.817Z,97947.56
2023-03-10T02:11:12.024Z,97943.28
2023-03-10T02:12:15.962Z,97943.84
2023-03-10T02:13:18.031Z,97927.88
2023-03-10T02:14:20.805Z,97934.91
2023-03-10T02:15:23.730Z,97934.44
2023-03-10T02:16:26.280Z,97933.19
2023-03-10T02:17:28.188Z,97931.19
2023-03-10T02:18:32.062Z,97931.19
2023-03-10T02:19:49.561Z,97927.53
2023-03-10T02:20:59.881Z,97926.28
2023-03-10T02:22:07.601Z,97913.84
2023-03-10T02:23:13.958Z,97920.47
2023-03-10T02:24:27.081Z,97921.06
2023-03-10T02:25:41.870Z,97915.88
2023-03-10T02:26:51.947Z,97908.84
2023-03-10T02:27:57.141Z,97916.81
2023-03-10T02:29:01.653Z,97908.78
2023-03-10T02:30:07.991Z,97906.31
2023-03-10T02:31:11.302Z,97900.41
2023-03-10T02:32:15.460Z,97906.06
2023-03-10T02:33:19.680Z,97903.69
2023-03-10T02:34:22.540Z,97892.25
2023-03-10T02:35:24.593Z,97900.97
2023-03-10T02:36:27.149Z,97898.16
2023-03-10T02:37:31.868Z,97896.16
2023-03-10T02:38:34.372Z,97891.00
2023-03-10T02:39:35.927Z,97889.00
2023-03-10T02:40:40.662Z,97895.44
2023-03-10T02:41:45.255Z,97892.94
2023-03-10T02:42:48.048Z,97893.91
2023-03-10T02:43:51.103Z,97891.66
2023-03-10T02:44:54.946Z,97882.72
2023-03-10T02:46:00.030Z,97883.56
2023-03-10T02:47:02.926Z,97890.00
2023-03-10T02:48:04.870Z,97882.66
2023-03-10T02:49:10.597Z,97877.81
2023-03-10T02:50:13.846Z,97872.06
2023-03-10T02:51:20.532Z,97872.31
2023-03-10T02:52:30.472Z,97864.47
2023-03-10T02:53:32.659Z,97863.97
2023-03-10T02:54:35.126Z,97868.47
2023-03-10T02:55:36.674Z,97860.91
2023-03-10T02:56:39.566Z,97867.41
2023-03-10T02:57:41.100Z,97864.47
2023-03-10T02:58:44.255Z,97857.63
2023-03-10T02:59:47.106Z,97857.19
2023-03-10T03:00:51.354Z,97855.47
2023-03-10T03:01:53.932Z,97857.31
2023-03-10T03:02:55.504Z,97844.31
2023-03-10T03:03:58.662Z,97837.13
2023-03-10T03:05:00.285Z,97833.81
2023-03-10T03:06:03.213Z,97838.66
2023-03-10T03:07:05.801Z,97834.09
2023-03-10T03:08:08.758Z,97838.97
2023-03-10T03:09:11.494Z,97846.97
2023-03-10T03:10:13.156Z,97827.28
2023-03-10T03:11:16.676Z,97832.94
2023-03-10T03:12:18.381Z,97833.78
2023-03-10T03:13:20.849Z,97818.69
2023-03-10T03:14:22.860Z,97827.72
2023-03-10T03:15:27.055Z,97829.56
2023-03-10T03:16:35.789Z,97824.13
2023-03-10T03:17:37.369Z,97819.13
2023-03-10T03:18:40.312Z,97818.69
2023-03-10T03:19:42.342Z,97819.38
2023-03-10T03:20:44.857Z,97812.16
2023-03-10T03:21:49.900Z,97819.06
2023-03-10T03:22:52.877Z,97810.09
2023-03-10T03:23:54.572Z,97814.47
2023-03-10T03:24:58.131Z,97813.59
2023-03-10T03:25:59.728Z,97813.13
2023-03-10T03:27:02.262Z,97816.25
2023-03-10T03:28:08.345Z,97806.50
2023-03-10T03:29:12.221Z,97806.16
2023-03-10T03:30:16.868Z,97810.03
2023-03-10T03:31:22.745Z,97803.00
2023-03-10T03:32:24.424Z,97798.88
2023-03-10T03:33:27.266Z,97800.28
2023-03-10T03:34:28.823Z,97802.41
2023-03-10T03:35:33.939Z,97796.31
2023-03-10T03:36:36.279Z,97796.16
2023-03-10T03:37:38.815Z,97793.03
2023-03-10T03:38:42.111Z,97792.56
2023-03-10T03:39:43.799Z,97802.25
2023-03-10T03:40:46.317Z,97808.84
2023-03-10T03:41:49.034Z,97796.72
2023-03-10T03:42:53.680Z,97793.66
2023-03-10T03:43:55.441Z,97805.97
2023-03-10T03:44:58.099Z,97809.06
2023-03-10T03:46:00.006Z,97792.19
2023-03-10T03:47:04.889Z,97813.03
2023-03-10T03:48:06.660Z,97809.44
2023-03-10T03:49:10.538Z,97808.75
2023-03-10T03:50:14.662Z,97812.06
2023-03-10T03:51:17.299Z,97808.28
2023-03-10T03:52:19.476Z,97805.97
2023-03-10T03:53:21.928Z,97812.09
2023-03-10T03:54:23.698Z,97805.75
2023-03-10T03:55:26.242Z,97804.88
2023-03-10T03:56:28.752Z,97799.81
2023-03-10T03:57:30.388Z,97796.06
2023-03-10T03:58:32.915Z,97790.53
2023-03-10T03:59:35.209Z,97795.47
2023-03-10T04:00:40.009Z,97789.66
2023-03-10T04:01:42.551Z,97777.81
2023-03-10T04:02:45.779Z,97777.31
2023-03-10T04:03:48.329Z,97786.25
2023-03-10T04:04:50.054Z,97777.63
2023-03-10T04:05:52.522Z,97785.50
2023-03-10T04:06:54.205Z,97777.56
2023-03-10T04:07:56.770Z,97778.25
2023-03-10T04:08:59.273Z,97783.25
2023-03-10T04:10:01.049Z,97779.81
2023-03-10T04:11:03.641Z,97775.72
2023-03-10T04:12:06.106Z,97776.63
2023-03-10T04:13:08.895Z,97769.91
2023-03-10T04:14:10.630Z,97781.09
2023-03-10T04:15:13.581Z,97781.31
2023-03-10T04:16:15.211Z,97775.63
2023-03-10T04:17:18.058Z,97767.50
2023-03-10T04:18:20.938Z,97775.47
2023-03-10T04:19:23.469Z,97766.63
2023-03-10T04:20:25.821Z,97766.53
2023-03-10T04:21:28.375Z,97781.28
2023-03-10T04:22:29.906Z,97762.50
2023-03-10T04:23:32.450Z,97765.97
2023-03-10T04:24:34.005Z,97761.66
2023-03-10T04:25:36.743Z,97764.16
2023-03-10T04:26:38.357Z,97768.91
2023-03-10T04:27:40.905Z,97765.38
2023-03-10T04:28:42.418Z,97769.16
2023-03-10T04:29:45.018Z,97753.94
2023-03-10T04:30:47.728Z,97757.84
2023-03-10T04:32:04.088Z,97747.16
2023-03-10T04:33:07.642Z,97750.69
2023-03-10T04:34:10.779Z,97755.28
2023-03-10T04:35:14.703Z,97757.13
2023-03-10T04:36:16.610Z,97755.34
2023-03-10T04:37:20.264Z,97753.09
2023-03-10T04:38:23.951Z,97755.72
2023-03-10T04:39:25.545Z,97751.50
2023-03-10T04:40:28.015Z,97743.38
2023-03-10T04:41:29.527Z,97745.84
2023-03-10T04:42:32.192Z,97747.31
2023-03-10T04:43:33.692Z,97747.66
2023-03-10T04:44:36.475Z,97748.22
2023-03-10T04:45:38.087Z,97748.31
2023-03-10T04:46:40.619Z,97741.19
2023-03-10T04:47:42.229Z,97760.31
2023-03-10T04:48:45.017Z,97757.41
2023-03-10T04:49:47.865Z,97747.91
2023-03-10T04:50:56.439Z,97746.53
2023-03-10T04:51:58.246Z,97751.63
2023-03-10T04:53:00.785Z,97751.66
2023-03-10T04:54:02.345Z,97748.34
2023-03-10T04:55:05.583Z,97761.59
2023-03-10T04:56:08.164Z,97759.69
2023-03-10T04:57:10.908Z,97760.59
2023-03-10T04:58:13.558Z,97754.25
2023-03-10T04:59:15.135Z,97754.56
2023-03-10T05:00:18.137Z,97753.66
2023-03-10T05:01:19.853Z,97753.31
2023-03-10T05:02:22.315Z,97750.34
2023-03-10T05:03:23.952Z,97749.59
2023-03-10T05:04:26.502Z,97749.91
2023-03-10T05:05:29.407Z,97750.38
2023-03-10T05:06:32.038Z,97746.66
2023-03-10T05:07:33.515Z,97750.72
2023-03-10T05:08:36.235Z,97742.66
2023-03-10T05:09:39.545Z,97746.53
2023-03-10T05:10:43.675Z,97754.47
2023-03-10T05:11:45.209Z,97749.47
2023-03-10T05:12:47.771Z,97752.31
2023-03-10T05:13:50.016Z,97750.84
2023-03-10T05:14:52.575Z,97752.97
2023-03-10T05:15:54.212Z,97757.88
2023-03-10T05:16:56.797Z,97760.81
2023-03-10T05:17:58.307Z,97760.81
2023-03-10T05:19:00.779Z,97771.03
2023-03-10T05:20:02.370Z,97764.69
2023-03-10T05:21:07.265Z,97761.97
2023-03-10T05:22:13.996Z,97755.38
2023-03-10T05:23:15.565Z,97752.66
2023-03-10T05:24:18.302Z,97759.59
2023-03-10T05:25:20.080Z,97752.44
2023-03-10T05:26:22.682Z,97748.00
2023-03-10T05:27:25.137Z,97761.06
2023-03-10T05:28:26.672Z,97752.09
2023-03-10T05:29:29.644Z,97750.06
2023-03-10T05:30:31.230Z,97754.47
2023-03-10T05:31:38.678Z,97750.63
2023-03-10T05:32:41.587Z,97752.09
2023-03-10T05:33:43.711Z,97751.19
2023-03-10T05:34:46.165Z,97740.53
2023-03-10T05:35:47.926Z,97744.81
2023-03-10T05:36:51.819Z,97753.34
2023-03-10T05:37:53.388Z,97754.59
2023-03-10T05:38:55.859Z,97748.56
2023-03-10T05:40:01.762Z,97750.84
2023-03-10T05:41:07.788Z,97745.53
2023-03-10T05:42:09.490Z,97751.88
2023-03-10T05:43:12.433Z,97754.13
2023-03-10T05:44:14.019Z,97750.41
2023-03-10T05:45:17.300Z,97738.25
2023-03-10T05:46:18.906Z,97737.47
2023-03-10T05:47:21.441Z,97737.34
2023-03-10T05:48:23.007Z,97741.66
2023-03-10T05:49:25.771Z,97748.56
2023-03-10T05:50:27.371Z,97740.97
2023-03-10T05:51:29.931Z,97742.38
2023-03-10T05:52:36.859Z,97746.75
2023-03-10T05:53:39.945Z,97736.56
2023-03-10T05:54:42.602Z,97737.03
2023-03-10T05:55:45.101Z,97738.47
2023-03-10T05:56:46.724Z,97732.56
2023-03-10T05:57:49.486Z,97734.41
2023-03-10T05:58:52.077Z,97729.88
2023-03-10T05:59:53.732Z,97726.91
2023-03-10T06:00:56.153Z,97726.59
2023-03-10T06:01:57.694Z,97722.84
2023-03-10T06:03:00.243Z,97719.66
2023-03-10T06:04:01.987Z,97723.06
2023-03-10T06:05:05.065Z,97731.56
2023-03-10T06:06:08.478Z,97730.09
2023-03-10T06:07:10.077Z,97734.38
2023-03-10T06:08:13.964Z,97727.25
2023-03-10T06:09:15.486Z,97728.50
2023-03-10T06:10:18.204Z,97725.78
2023-03-10T06:11:20.008Z,97730.22
2023-03-10T06:12:22.554Z,97741.00
2023-03-10T06:13:25.162Z,97729.53
2023-03-10T06:14:27.838Z,97727.84
2023-03-10T06:15:30.189Z,97733.72
2023-03-10T06:16:32.875Z,97736.44
2023-03-10T06:17:34.463Z,97739.50
2023-03-10T06:18:37.203Z,97732.69
2023-03-10T06:19:38.856Z,97739.94
2023-03-10T06:20:41.334Z,97740.19
2023-03-10T06:21:43.189Z,97743.56
2023-03-10T06:22:45.666Z,97733.16
2023-03-10T06:23:48.582Z,97738.25
2023-03-10T06:24:51.131Z,97735.75
2023-03-10T06:25:57.230Z,97740.66
2023-03-10T06:26:59.786Z,97740.53
2023-03-10T06:28:01.373Z,97745.19
2023-03-10T06:29:03.927Z,97745.97
2023-03-10T06:30:06.744Z,97741.56
2023-03-10T06:31:14.309Z,97735.31
2023-03-10T06:32:16.438Z,97739.84
2023-03-10T06:33:18.973Z,97750.72
2023-03-10T06:34:20.526Z,97747.00
2023-03-10T06:35:23.030Z,97739.97
2023-03-10T06:36:26.660Z,97742.91
2023-03-10T06:37:29.349Z,97739.06
2023-03-10T06:38:31.002Z,97747.09
2023-03-10T06:39:34.991Z,97743.25
2023-03-10T06:40:36.876Z,97745.97
2023-03-10T06:41:40.002Z,97752.09
2023-03-10T06:42:42.713Z,97747.47
2023-03-10T06:43:45.893Z,97757.91
2023-03-10T06:44:49.242Z,97755.06
2023-03-10T06:45:52.805Z,97760.16
2023-03-10T06:46:54.608Z,97760.03
2023-03-10T06:47:57.112Z,97768.22
2023-03-10T06:48:59.732Z,97766.28
2023-03-10T06:50:02.050Z,97760.38
2023-03-10T06:51:07.531Z,97763.81
2023-03-10T06:52:09.109Z,97758.91
2023-03-10T06:53:12.430Z,97759.47
2023-03-10T06:54:14.079Z,97754.25
2023-03-10T06:55:17.924Z,97755.38
2023-03-10T06:56:21.802Z,97761.75
2023-03-10T06:57:24.387Z,97770.03
2023-03-10T06:58:26.239Z,97762.88
2023-03-10T06:59:28.709Z,97759.34
2023-03-10T07:00:30.596Z,97767.97
2023-03-10T07:01:34.935Z,97759.47
2023-03-10T07:02:36.960Z,97761.97
2023-03-10T07:03:39.852Z,97771.88
2023-03-10T07:04:42.009Z,97767.66
2023-03-10T07:05:44.498Z,97766.38
2023-03-10T07:06:46.064Z,97764.69
2023-03-10T07:07:50.566Z,97775.59
2023-03-10T07:08:54.597Z,97780.59
2023-03-10T07:09:57.744Z,97779.47
2023-03-10T07:11:00.629Z,97784.13
2023-03-10T07:12:03.760Z,97783.22
2023-03-10T07:13:05.314Z,97783.41
2023-03-10T07:14:08.207Z,97792.63
2023-03-10T07:15:10.792Z,97784.78
2023-03-10T07:16:13.759Z,97786.84
2023-03-10T07:17:15.387Z,97790.44
2023-03-10T07:18:18.113Z,97781.09
2023-03-10T07:19:19.687Z,97778.03
2023-03-10T07:20:22.253Z,97779.69
2023-03-10T07:21:24.004Z,97775.81
2023-03-10T07:22:26.627Z,97783.22
2023-03-10T07:23:28.443Z,97773.44
2023-03-10T07:24:30.975Z,97774.34
2023-03-10T07:25:35.125Z,97767.75
2023-03-10T07:26:39.487Z,97773.97
2023-03-10T07:27:41.134Z,97778.09
2023-03-10T07:28:43.725Z,97772.63
2023-03-10T07:29:45.531Z,97781.28
2023-03-10T07:30:49.285Z,97783.22
2023-03-10T07:31:52.119Z,97775.81
2023-03-10T07:32:54.714Z,97785.81
2023-03-10T07:33:57.440Z,97771.41
2023-03-10T07:34:59.130Z,97776.59
2023-03-10T07:36:05.752Z,97777.50
2023-03-10T07:37:08.084Z,97779.28
2023-03-10T07:38:12.184Z,97776.47
2023-03-10T07:39:14.712Z,97778.25
2023-03-10T07:40:18.545Z,97780.94
2023-03-10T07:41:22.748Z,97779.84
2023-03-10T07:42:25.869Z,97772.59
2023-03-10T07:43:28.423Z,97773.81
2023-03-10T07:44:31.139Z,97780.38
2023-03-10T07:45:33.532Z,97774.56
2023-03-10T07:46:36.243Z,97780.81
2023-03-10T07:47:37.935Z,97789.75
2023-03-10T07:48:40.703Z,97785.34
2023-03-10T07:49:46.804Z,97801.91
2023-03-10T07:50:56.055Z,97792.81
2023-03-10T07:51:58.612Z,97779.59
2023-03-10T07:53:00.449Z,97785.69
2023-03-10T07:54:02.912Z,97794.25
2023-03-10T07:55:05.519Z,97785.06
2023-03-10T07:56:12.405Z,97792.97
2023-03-10T07:57:16.488Z,97798.88
2023-03-10T07:58:19.700Z,97798.03
2023-03-10T07:59:22.285Z,97794.47
2023-03-10T08:00:24.099Z,97791.91
2023-03-10T08:01:26.659Z,97797.41
2023-03-10T08:02:29.320Z,97796.59
2023-03-10T08:03:32.075Z,97804.69
2023-03-10T08:04:34.986Z,97790.16
2023-03-10T08:05:40.149Z,97796.47
2023-03-10T08:06:42.709Z,97796.03
2023-03-10T08:07:44.737Z,97792.19
2023-03-10T08:08:48.056Z,97792.06
2023-03-10T08:09:50.728Z,97788.66
2023-03-10T08:11:01.242Z,97798.91
2023-03-10T08:12:03.540Z,97796.25
2023-03-10T08:13:06.040Z,97801.44
2023-03-10T08:14:10.151Z,97791.78
2023-03-10T08:15:13.369Z,97799.53
2023-03-10T08:16:17.075Z,97803.84
2023-03-10T08:17:19.822Z,97807.38
2023-03-10T08:18:26.198Z,97802.25
2023-03-10T08:19:29.139Z,97810.09
2023-03-10T08:20:31.362Z,97809.16
2023-03-10T08:21:34.240Z,97812.06
2023-03-10T08:22:36.331Z,97815.75
2023-03-10T08:23:40.311Z,97817.47
2023-03-10T08:24:42.222Z,97814.44
2023-03-10T08:26:30.819Z,97821.94
2023-03-10T08:27:32.523Z,97824.06
2023-03-10T08:28:37.610Z,97826.00
2023-03-10T08:29:41.452Z,97830.50
2023-03-10T08:31:03.752Z,97830.22
2023-03-10T08:32:08.282Z,97832.97
2023-03-10T08:33:10.176Z,97834.38
2023-03-10T08:34:13.174Z,97840.53
2023-03-10T08:35:14.796Z,97842.13
2023-03-10T08:36:21.326Z,97833.75
2023-03-10T08:37:23.919Z,97839.56
2023-03-10T08:38:25.494Z,97833.94
2023-03-10T08:39:28.818Z,97843.94
2023-03-10T08:40:31.130Z,97835.72
2023-03-10T08:41:37.279Z,97836.97
2023-03-10T08:42:38.926Z,97845.59
2023-03-10T08:43:42.016Z,97841.03
2023-03-10T08:44:46.022Z,97838.66
2023-03-10T08:45:48.554Z,97839.69
2023-03-10T08:46:51.784Z,97846.44
2023-03-10T08:47:53.344Z,97839.25
2023-03-10T08:48:56.067Z,97842.09
2023-03-10T08:49:59.368Z,97842.13
2023-03-10T08:51:02.056Z,97840.16
2023-03-10T08:52:05.061Z,97834.53
2023-03-10T08:53:06.886Z,97839.16
2023-03-10T08:54:11.083Z,97836.97
2023-03-10T08:55:12.732Z,97836.97
2023-03-10T08:56:15.897Z,97846.53
2023-03-10T08:57:17.745Z,97841.84
2023-03-10T08:58:20.556Z,97846.97
2023-03-10T08:59:23.277Z,97844.50
2023-03-10T09:00:27.485Z,97845.50
2023-03-10T09:01:31.603Z,97842.59
2023-03-10T09:02:34.743Z,97847.44
2023-03-10T09:03:37.535Z,97852.44
2023-03-10T09:04:40.165Z,97848.72
2023-03-10T09:05:42.018Z,97854.16
2023-03-10T09:06:44.834Z,97851.81
2023-03-10T09:07:47.612Z,97839.22
2023-03-10T09:08:50.639Z,97845.72
2023-03-10T09:09:53.218Z,97846.91
2023-03-10T09:10:55.074Z,97847.75
2023-03-10T09:11:57.616Z,97839.91
2023-03-10T09:13:12.912Z,97849.41
2023-03-10T09:14:17.554Z,97847.69
2023-03-10T09:15:20.037Z,97858.63
2023-03-10T09:16:24.786Z,97853.78
2023-03-10T09:17:26.374Z,97854.34
2023-03-10T09:18:28.944Z,97851.78
2023-03-10T09:19:30.570Z,97849.66
2023-03-10T09:20:33.079Z,97850.81
2023-03-10T09:21:36.081Z,97847.53
2023-03-10T09:22:37.713Z,97848.72
2023-03-10T09:23:42.228Z,97848.44
2023-03-10T09:24:44.749Z,97843.03
2023-03-10T09:25:46.539Z,97846.56
2023-03-10T09:26:49.045Z,97842.53
2023-03-10T09:27:50.542Z,97839.88
2023-03-10T09:28:55.201Z,97842.25
2023-03-10T09:30:00.656Z,97843.06
2023-03-10T09:31:04.831Z,97838.66
2023-03-10T09:32:09.601Z,97838.78
2023-03-10T09:33:15.796Z,97841.09
2023-03-10T09:34:18.470Z,97844.28
2023-03-10T09:35:20.879Z,97836.09
2023-03-10T09:36:23.471Z,97838.72
2023-03-10T09:37:25.071Z,97829.97
2023-03-10T09:38:27.826Z,97844.75
2023-03-10T09:39:30.375Z,97838.47
2023-03-10T09:40:33.578Z,97837.22
2023-03-10T09:41:57.012Z,97835.72
2023-03-10T09:43:02.023Z,97848.25
2023-03-10T09:44:23.727Z,97837.88
2023-03-10T09:45:40.824Z,97849.38
2023-03-10T09:46:50.646Z,97834.59
2023-03-10T09:48:23.563Z,97838.47
2023-03-10T09:49:33.656Z,97847.41
2023-03-10T09:50:41.509Z,97850.91
2023-03-10T09:51:49.034Z,97846.63
2023-03-10T09:52:58.962Z,97850.00
2023-03-10T09:54:17.545Z,97851.03
2023-03-10T09:55:21.945Z,97841.84
2023-03-10T09:56:30.166Z,97845.91
2023-03-10T09:57:34.515Z,97841.13
2023-03-10T09:58:40.955Z,97835.41
2023-03-10T09:59:45.406Z,97840.84
2023-03-10T10:00:48.568Z,97837.53
2023-03-10T10:01:53.838Z,97842.09
2023-03-10T10:03:09.073Z,97838.03
2023-03-10T10:04:16.774Z,97838.34
2023-03-10T10:05:23.794Z,97845.81
2023-03-10T10:06:29.235Z,97838.28
2023-03-10T10:07:48.159Z,97843.41
2023-03-10T10:09:04.325Z,97855.22
2023-03-10T10:10:16.175Z,97831.75
2023-03-10T10:11:19.635Z,97838.88
2023-03-10T10:12:24.948Z,97842.19
2023-03-10T10:13:31.228Z,97837.50
2023-03-10T10:14:33.787Z,97851.72
2023-03-10T10:15:40.502Z,97825.81
2023-03-10T10:16:51.535Z,97839.44
2023-03-10T10:18:18.524Z,97822.31
2023-03-10T10:19:25.655Z,97832.75
2023-03-10T10:20:32.056Z,97827.56
2023-03-10T10:21:43.773Z,97847.84
2023-03-10T10:22:45.594Z,97829.44
2023-03-10T10:23:54.247Z,97826.25
2023-03-10T10:25:09.645Z,97832.38
2023-03-10T10:26:14.089Z,97822.09
2023-03-10T10:27:18.715Z,97828.06
2023-03-10T10:28:28.077Z,97826.25
2023-03-10T10:29:34.764Z,97839.34
2023-03-10T10:30:39.218Z,97838.25
2023-03-10T10:31:40.998Z,97821.13
2023-03-10T10:32:56.656Z,97829.94
2023-03-10T10:34:00.468Z,97819.50
2023-03-10T10:35:16.525Z,97824.66
2023-03-10T10:36:18.269Z,97836.13
2023-03-10T10:37:25.620Z,97831.09
2023-03-10T10:38:30.232Z,97837.06
2023-03-10T10:39:37.262Z,97826.69
2023-03-10T10:40:49.019Z,97830.22
2023-03-10T10:41:51.090Z,97835.44
2023-03-10T10:42:55.638Z,97840.59
2023-03-10T10:44:01.159Z,97845.13
2023-03-10T10:45:07.987Z,97838.38
2023-03-10T10:46:11.982Z,97837.72
2023-03-10T10:47:26.467Z,97830.94
2023-03-10T10:48:36.521Z,97826.22
2023-03-10T10:49:39.146Z,97829.25
2023-03-10T10:50:54.757Z,97833.81
2023-03-10T10:51:59.801Z,97834.19
2023-03-10T10:53:24.425Z,97836.47
2023-03-10T10:54:29.510Z,97842.09
2023-03-10T10:55:34.794Z,97824.91
2023-03-10T10:56:37.426Z,97829.88
2023-03-10T10:57:46.020Z,97830.28
2023-03-10T10:59:03.158Z,97816.44
2023-03-10T11:00:18.607Z,97813.06
2023-03-10T11:01:21.411Z,97814.34
2023-03-10T11:02:31.075Z,97814.69
2023-03-10T11:03:36.878Z,97809.81
2023-03-10T11:04:43.816Z,97795.38
2023-03-10T11:05:47.682Z,97801.97
2023-03-10T11:06:50.143Z,97805.16
2023-03-10T11:07:52.993Z,97798.47
2023-03-10T11:09:04.068Z,97793.69
2023-03-10T11:10:13.245Z,97801.00
2023-03-10T11:11:24.456Z,97792.91
2023-03-10T11:12:31.343Z,97793.50
2023-03-10T11:13:39.452Z,97795.19
2023-03-10T11:14:57.925Z,97781.66
2023-03-10T11:16:06.815Z,97796.78
2023-03-10T11:17:16.144Z,97803.28
2023-03-10T11:18:23.012Z,97794.06
2023-03-10T11:19:33.285Z,97795.88
2023-03-10T11:20:52.616Z,97792.41
2023-03-10T11:21:59.388Z,97789.38
2023-03-10T11:23:13.256Z,97796.03
2023-03-10T11:24:24.557Z,97788.63
2023-03-10T11:25:33.304Z,97784.75
2023-03-10T11:26:45.371Z,97781.78
2023-03-10T11:27:55.970Z,97787.94
2023-03-10T11:29:04.802Z,97779.22
2023-03-10T11:30:15.200Z,97787.56
2023-03-10T11:31:27.190Z,97783.00
2023-03-10T11:32:39.143Z,97780.47
2023-03-10T11:33:49.934Z,97781.22
2023-03-10T11:34:53.929Z,97780.56
2023-03-10T11:36:08.032Z,97783.53
2023-03-10T11:37:21.417Z,97773.72
2023-03-10T11:38:35.479Z,97773.56
2023-03-10T11:39:49.209Z,97770.22
2023-03-10T11:40:55.205Z,97775.50
2023-03-10T11:42:06.523Z,97772.97
2023-03-10T11:43:19.076Z,97773.75
2023-03-10T11:44:30.681Z,97776.13
2023-03-10T11:45:38.270Z,97772.97
2023-03-10T11:46:48.668Z,97776.13
2023-03-10T11:48:04.867Z,97785.97
2023-03-10T11:49:08.114Z,97787.75
2023-03-10T11:50:20.657Z,97788.94
2023-03-10T11:51:31.246Z,97778.41
2023-03-10T11:52:33.934Z,97780.84
2023-03-10T11:53:44.026Z,97786.13
2023-03-10T11:54:50.017Z,97794.22
2023-03-10T11:55:54.234Z,97787.19
2023-03-10T11:56:57.412Z,97782.13
2023-03-10T11:58:06.657Z,97786.13
2023-03-10T11:59:13.064Z,97787.09
2023-03-10T12:00:23.746Z,97781.31
2023-03-10T12:01:31.854Z,97779.94
2023-03-10T12:02:40.020Z,97794.41
2023-03-10T12:03:49.522Z,97789.88
2023-03-10T12:04:58.664Z,97789.34
2023-03-10T12:06:02.500Z,97787.44
2023-03-10T12:07:11.550Z,97799.47
2023-03-10T12:08:15.805Z,97789.09
2023-03-10T12:09:30.938Z,97780.53
2023-03-10T12:10:37.376Z,97791.25
2023-03-10T12:11:40.532Z,97783.69
2023-03-10T12:12:44.530Z,97786.59
2023-03-10T12:13:50.585Z,97786.97
2023-03-10T12:14:53.493Z,97783.00
2023-03-10T12:16:00.609Z,97785.25
2023-03-10T12:17:05.152Z,97783.59
2023-03-10T12:18:08.266Z,97774.31
2023-03-10T12:19:56.071Z,97779.44
2023-03-10T12:21:18.545Z,97792.44
2023-03-10T12:22:26.680Z,97781.56
2023-03-10T12:23:41.171Z,97784.84
2023-03-10T12:24:46.090Z,97781.38
2023-03-10T12:25:49.302Z,97784.22
2023-03-10T12:27:04.128Z,97785.34
2023-03-10T12:28:13.573Z,97780.81
2023-03-10T12:29:34.363Z,97788.94
2023-03-10T12:30:51.863Z,97784.44
2023-03-10T12:31:56.537Z,97780.56
2023-03-10T12:32:58.371Z,97782.47
2023-03-10T12:34:20.563Z,97777.47
2023-03-10T12:35:43.647Z,97777.59
2023-03-10T12:36:47.479Z,97777.41
2023-03-10T12:37:55.713Z,97778.41
2023-03-10T12:39:00.125Z,97775.06
2023-03-10T12:40:01.961Z,97774.66